sensor_id;sensor_type;location;lat;lon;timestamp;P1;durP1;ratioP1;P2;durP2;ratioP2
60257;SDS011;46115;44.484;11.314;2023-04-08T00:03:25;26.63;;;21.08;;
60257;SDS011;46115;44.484;11.314;2023-04-08T00:11:31;25.85;;;20.50;;
60257;SDS011;46115;44.484;11.314;2023-04-08T00:15:34;25.20;;;20.52;;
60257;SDS011;46115;44.484;11.314;2023-04-08T00:19:37;26.38;;;20.88;;
60257;SDS011;46115;44.484;11.314;2023-04-08T00:23:39;27.67;;;21.42;;
60257;SDS011;46115;44.484;11.314;2023-04-08T00:31:45;26.83;;;20.20;;
60257;SDS011;46115;44.484;11.314;2023-04-08T00:35:47;22.83;;;17.73;;
60257;SDS011;46115;44.484;11.314;2023-04-08T00:39:50;24.40;;;17.38;;
60257;SDS011;46115;44.484;11.314;2023-04-08T00:43:53;26.55;;;19.83;;
60257;SDS011;46115;44.484;11.314;2023-04-08T00:47:57;26.45;;;21.95;;
60257;SDS011;46115;44.484;11.314;2023-04-08T00:52:00;28.55;;;23.25;;
60257;SDS011;46115;44.484;11.314;2023-04-08T01:04:12;32.10;;;25.15;;
60257;SDS011;46115;44.484;11.314;2023-04-08T01:08:22;34.13;;;26.70;;
60257;SDS011;46115;44.484;11.314;2023-04-08T01:12:27;34.95;;;27.17;;
60257;SDS011;46115;44.484;11.314;2023-04-08T01:16:32;36.15;;;28.40;;
60257;SDS011;46115;44.484;11.314;2023-04-08T01:20:37;33.72;;;27.98;;
60257;SDS011;46115;44.484;11.314;2023-04-08T01:24:42;35.90;;;29.27;;
60257;SDS011;46115;44.484;11.314;2023-04-08T01:28:48;34.17;;;27.30;;
60257;SDS011;46115;44.484;11.314;2023-04-08T01:32:53;36.13;;;29.48;;
60257;SDS011;46115;44.484;11.314;2023-04-08T01:36:56;35.00;;;27.48;;
60257;SDS011;46115;44.484;11.314;2023-04-08T01:40:59;35.08;;;27.30;;
60257;SDS011;46115;44.484;11.314;2023-04-08T01:45:05;35.25;;;27.05;;
60257;SDS011;46115;44.484;11.314;2023-04-08T01:49:10;32.10;;;26.52;;
60257;SDS011;46115;44.484;11.314;2023-04-08T01:53:13;37.17;;;26.95;;
60257;SDS011;46115;44.484;11.314;2023-04-08T02:01:21;32.17;;;24.42;;
60257;SDS011;46115;44.484;11.314;2023-04-08T02:05:26;31.92;;;24.67;;
60257;SDS011;46115;44.484;11.314;2023-04-08T02:09:29;33.08;;;26.38;;
60257;SDS011;46115;44.484;11.314;2023-04-08T02:17:37;32.17;;;25.55;;
60257;SDS011;46115;44.484;11.314;2023-04-08T02:21:45;36.58;;;25.65;;
60257;SDS011;46115;44.484;11.314;2023-04-08T02:25:51;31.38;;;25.08;;
60257;SDS011;46115;44.484;11.314;2023-04-08T02:30:01;31.85;;;25.20;;
60257;SDS011;46115;44.484;11.314;2023-04-08T02:34:06;31.90;;;25.52;;
60257;SDS011;46115;44.484;11.314;2023-04-08T02:38:10;30.20;;;24.92;;
60257;SDS011;46115;44.484;11.314;2023-04-08T02:42:13;31.52;;;24.75;;
60257;SDS011;46115;44.484;11.314;2023-04-08T02:46:15;33.90;;;24.67;;
60257;SDS011;46115;44.484;11.314;2023-04-08T02:54:21;34.03;;;24.40;;
60257;SDS011;46115;44.484;11.314;2023-04-08T02:58:24;32.80;;;24.00;;
60257;SDS011;46115;44.484;11.314;2023-04-08T03:06:30;33.80;;;23.87;;
60257;SDS011;46115;44.484;11.314;2023-04-08T03:10:33;32.45;;;23.73;;
60257;SDS011;46115;44.484;11.314;2023-04-08T03:18:37;33.47;;;23.97;;
60257;SDS011;46115;44.484;11.314;2023-04-08T03:22:41;33.10;;;25.38;;
60257;SDS011;46115;44.484;11.314;2023-04-08T03:26:43;31.63;;;23.88;;
60257;SDS011;46115;44.484;11.314;2023-04-08T03:34:47;33.93;;;25.20;;
60257;SDS011;46115;44.484;11.314;2023-04-08T03:38:52;34.00;;;25.73;;
60257;SDS011;46115;44.484;11.314;2023-04-08T03:42:54;34.53;;;25.63;;
60257;SDS011;46115;44.484;11.314;2023-04-08T03:50:59;32.72;;;24.90;;
60257;SDS011;46115;44.484;11.314;2023-04-08T03:59:05;35.22;;;26.20;;
60257;SDS011;46115;44.484;11.314;2023-04-08T04:07:12;30.67;;;23.15;;
60257;SDS011;46115;44.484;11.314;2023-04-08T04:11:16;31.25;;;23.85;;
60257;SDS011;46115;44.484;11.314;2023-04-08T04:15:19;32.30;;;24.77;;
60257;SDS011;46115;44.484;11.314;2023-04-08T04:23:23;34.70;;;25.50;;
60257;SDS011;46115;44.484;11.314;2023-04-08T04:27:27;30.73;;;24.55;;
60257;SDS011;46115;44.484;11.314;2023-04-08T04:31:29;32.83;;;25.90;;
60257;SDS011;46115;44.484;11.314;2023-04-08T04:39:34;35.35;;;25.75;;
60257;SDS011;46115;44.484;11.314;2023-04-08T04:47:40;30.52;;;22.80;;
60257;SDS011;46115;44.484;11.314;2023-04-08T04:55:45;31.33;;;23.30;;
60257;SDS011;46115;44.484;11.314;2023-04-08T05:03:51;31.23;;;24.48;;
60257;SDS011;46115;44.484;11.314;2023-04-08T05:11:55;30.55;;;23.40;;
60257;SDS011;46115;44.484;11.314;2023-04-08T05:15:59;31.98;;;23.48;;
60257;SDS011;46115;44.484;11.314;2023-04-08T05:20:02;30.17;;;23.13;;
60257;SDS011;46115;44.484;11.314;2023-04-08T05:24:05;29.23;;;23.45;;
60257;SDS011;46115;44.484;11.314;2023-04-08T05:32:11;30.85;;;23.75;;
60257;SDS011;46115;44.484;11.314;2023-04-08T05:36:14;31.17;;;23.27;;
60257;SDS011;46115;44.484;11.314;2023-04-08T05:44:18;30.23;;;22.60;;
60257;SDS011;46115;44.484;11.314;2023-04-08T05:48:22;27.45;;;22.70;;
60257;SDS011;46115;44.484;11.314;2023-04-08T05:52:25;27.65;;;22.98;;
60257;SDS011;46115;44.484;11.314;2023-04-08T05:56:27;27.38;;;22.30;;
60257;SDS011;46115;44.484;11.314;2023-04-08T06:00:32;25.17;;;21.45;;
60257;SDS011;46115;44.484;11.314;2023-04-08T06:04:36;28.40;;;21.95;;
60257;SDS011;46115;44.484;11.314;2023-04-08T06:08:38;30.05;;;21.83;;
60257;SDS011;46115;44.484;11.314;2023-04-08T06:12:41;26.17;;;21.67;;
60257;SDS011;46115;44.484;11.314;2023-04-08T06:16:43;25.75;;;21.45;;
60257;SDS011;46115;44.484;11.314;2023-04-08T06:24:49;27.08;;;22.23;;
60257;SDS011;46115;44.484;11.314;2023-04-08T06:28:51;28.15;;;22.40;;
60257;SDS011;46115;44.484;11.314;2023-04-08T06:36:57;28.52;;;23.13;;
60257;SDS011;46115;44.484;11.314;2023-04-08T06:41:03;29.55;;;24.33;;
60257;SDS011;46115;44.484;11.314;2023-04-08T06:45:06;31.02;;;25.00;;
60257;SDS011;46115;44.484;11.314;2023-04-08T06:49:09;28.23;;;23.85;;
60257;SDS011;46115;44.484;11.314;2023-04-08T06:53:15;33.25;;;25.48;;
60257;SDS011;46115;44.484;11.314;2023-04-08T06:57:17;28.80;;;23.90;;
60257;SDS011;46115;44.484;11.314;2023-04-08T07:05:21;31.30;;;24.70;;
60257;SDS011;46115;44.484;11.314;2023-04-08T07:13:28;28.38;;;23.17;;
60257;SDS011;46115;44.484;11.314;2023-04-08T07:17:30;29.63;;;23.52;;
60257;SDS011;46115;44.484;11.314;2023-04-08T07:21:33;30.80;;;24.73;;
60257;SDS011;46115;44.484;11.314;2023-04-08T07:25:37;31.90;;;25.05;;
60257;SDS011;46115;44.484;11.314;2023-04-08T07:29:39;30.73;;;23.55;;
60257;SDS011;46115;44.484;11.314;2023-04-08T07:33:42;27.67;;;23.60;;
60257;SDS011;46115;44.484;11.314;2023-04-08T07:37:45;29.27;;;23.90;;
60257;SDS011;46115;44.484;11.314;2023-04-08T07:45:51;27.40;;;22.85;;
60257;SDS011;46115;44.484;11.314;2023-04-08T07:49:53;27.83;;;23.27;;
60257;SDS011;46115;44.484;11.314;2023-04-08T07:53:56;27.90;;;22.98;;
60257;SDS011;46115;44.484;11.314;2023-04-08T07:57:59;29.30;;;22.80;;
60257;SDS011;46115;44.484;11.314;2023-04-08T08:02:02;33.13;;;23.10;;
60257;SDS011;46115;44.484;11.314;2023-04-08T08:06:05;27.80;;;22.83;;
60257;SDS011;46115;44.484;11.314;2023-04-08T08:10:07;27.63;;;22.77;;
60257;SDS011;46115;44.484;11.314;2023-04-08T08:14:12;25.08;;;22.38;;
60257;SDS011;46115;44.484;11.314;2023-04-08T08:18:15;25.95;;;22.90;;
60257;SDS011;46115;44.484;11.314;2023-04-08T08:22:17;29.70;;;23.42;;
60257;SDS011;46115;44.484;11.314;2023-04-08T08:26:20;26.17;;;22.23;;
60257;SDS011;46115;44.484;11.314;2023-04-08T08:30:24;25.77;;;21.70;;
60257;SDS011;46115;44.484;11.314;2023-04-08T08:34:27;25.67;;;21.70;;
60257;SDS011;46115;44.484;11.314;2023-04-08T08:38:29;24.17;;;18.65;;
60257;SDS011;46115;44.484;11.314;2023-04-08T08:42:32;23.60;;;19.42;;
60257;SDS011;46115;44.484;11.314;2023-04-08T08:46:36;19.77;;;17.67;;
60257;SDS011;46115;44.484;11.314;2023-04-08T08:50:42;18.10;;;15.32;;
60257;SDS011;46115;44.484;11.314;2023-04-08T08:54:45;17.30;;;15.50;;
60257;SDS011;46115;44.484;11.314;2023-04-08T08:58:48;18.42;;;15.65;;
60257;SDS011;46115;44.484;11.314;2023-04-08T09:02:52;18.85;;;15.20;;
60257;SDS011;46115;44.484;11.314;2023-04-08T09:07:07;14.65;;;12.80;;
60257;SDS011;46115;44.484;11.314;2023-04-08T09:11:12;15.95;;;11.43;;
60257;SDS011;46115;44.484;11.314;2023-04-08T09:15:16;13.23;;;11.30;;
60257;SDS011;46115;44.484;11.314;2023-04-08T09:19:19;12.43;;;11.15;;
60257;SDS011;46115;44.484;11.314;2023-04-08T09:23:22;13.93;;;11.40;;
60257;SDS011;46115;44.484;11.314;2023-04-08T09:27:32;14.15;;;10.32;;
60257;SDS011;46115;44.484;11.314;2023-04-08T09:31:35;13.48;;;10.57;;
60257;SDS011;46115;44.484;11.314;2023-04-08T09:35:42;13.48;;;11.48;;
60257;SDS011;46115;44.484;11.314;2023-04-08T09:39:46;14.30;;;11.90;;
60257;SDS011;46115;44.484;11.314;2023-04-08T09:43:49;12.15;;;10.82;;
60257;SDS011;46115;44.484;11.314;2023-04-08T09:47:55;11.68;;;10.48;;
60257;SDS011;46115;44.484;11.314;2023-04-08T09:52:05;12.52;;;10.98;;
60257;SDS011;46115;44.484;11.314;2023-04-08T09:56:09;11.75;;;10.52;;
60257;SDS011;46115;44.484;11.314;2023-04-08T10:00:13;14.10;;;10.93;;
60257;SDS011;46115;44.484;11.314;2023-04-08T10:04:18;15.13;;;12.02;;
60257;SDS011;46115;44.484;11.314;2023-04-08T10:08:23;16.80;;;12.45;;
60257;SDS011;46115;44.484;11.314;2023-04-08T10:12:26;13.98;;;12.57;;
60257;SDS011;46115;44.484;11.314;2023-04-08T10:16:29;15.18;;;13.20;;
60257;SDS011;46115;44.484;11.314;2023-04-08T10:20:41;19.17;;;13.18;;
60257;SDS011;46115;44.484;11.314;2023-04-08T10:24:53;12.85;;;11.05;;
60257;SDS011;46115;44.484;11.314;2023-04-08T10:29:29;12.25;;;10.13;;
60257;SDS011;46115;44.484;11.314;2023-04-08T10:33:35;15.80;;;11.20;;
60257;SDS011;46115;44.484;11.314;2023-04-08T10:37:37;15.07;;;12.02;;
60257;SDS011;46115;44.484;11.314;2023-04-08T10:41:41;16.17;;;12.30;;
60257;SDS011;46115;44.484;11.314;2023-04-08T10:45:44;11.93;;;9.88;;
60257;SDS011;46115;44.484;11.314;2023-04-08T10:49:50;13.95;;;11.02;;
60257;SDS011;46115;44.484;11.314;2023-04-08T10:53:53;12.40;;;11.13;;
60257;SDS011;46115;44.484;11.314;2023-04-08T10:57:57;13.68;;;10.95;;
60257;SDS011;46115;44.484;11.314;2023-04-08T11:02:11;11.95;;;10.50;;
60257;SDS011;46115;44.484;11.314;2023-04-08T11:06:14;13.90;;;12.20;;
60257;SDS011;46115;44.484;11.314;2023-04-08T11:10:17;13.43;;;10.45;;
60257;SDS011;46115;44.484;11.314;2023-04-08T11:14:22;13.25;;;10.95;;
60257;SDS011;46115;44.484;11.314;2023-04-08T11:18:24;11.10;;;9.50;;
60257;SDS011;46115;44.484;11.314;2023-04-08T11:22:27;13.50;;;9.35;;
60257;SDS011;46115;44.484;11.314;2023-04-08T11:26:30;11.88;;;10.60;;
60257;SDS011;46115;44.484;11.314;2023-04-08T11:30:35;12.52;;;11.23;;
60257;SDS011;46115;44.484;11.314;2023-04-08T11:34:39;14.93;;;12.02;;
60257;SDS011;46115;44.484;11.314;2023-04-08T11:38:42;13.13;;;11.75;;
60257;SDS011;46115;44.484;11.314;2023-04-08T11:42:45;13.98;;;11.15;;
60257;SDS011;46115;44.484;11.314;2023-04-08T11:46:55;14.68;;;11.75;;
60257;SDS011;46115;44.484;11.314;2023-04-08T11:51:01;13.02;;;11.65;;
60257;SDS011;46115;44.484;11.314;2023-04-08T11:55:05;12.73;;;11.07;;
60257;SDS011;46115;44.484;11.314;2023-04-08T11:59:07;11.88;;;9.25;;
60257;SDS011;46115;44.484;11.314;2023-04-08T12:03:11;9.98;;;8.77;;
60257;SDS011;46115;44.484;11.314;2023-04-08T12:07:14;9.50;;;8.50;;
60257;SDS011;46115;44.484;11.314;2023-04-08T12:11:17;10.05;;;8.55;;
60257;SDS011;46115;44.484;11.314;2023-04-08T12:15:19;11.10;;;8.50;;
60257;SDS011;46115;44.484;11.314;2023-04-08T12:19:23;9.63;;;8.30;;
60257;SDS011;46115;44.484;11.314;2023-04-08T12:23:26;10.40;;;8.82;;
60257;SDS011;46115;44.484;11.314;2023-04-08T12:27:29;9.25;;;8.27;;
60257;SDS011;46115;44.484;11.314;2023-04-08T12:31:33;9.68;;;8.23;;
60257;SDS011;46115;44.484;11.314;2023-04-08T12:35:36;11.55;;;8.20;;
60257;SDS011;46115;44.484;11.314;2023-04-08T12:39:39;11.88;;;7.38;;
60257;SDS011;46115;44.484;11.314;2023-04-08T12:43:41;8.30;;;7.20;;
60257;SDS011;46115;44.484;11.314;2023-04-08T12:47:44;5.22;;;3.38;;
60257;SDS011;46115;44.484;11.314;2023-04-08T12:51:47;4.03;;;2.80;;
60257;SDS011;46115;44.484;11.314;2023-04-08T12:55:50;6.80;;;2.88;;
60257;SDS011;46115;44.484;11.314;2023-04-08T12:59:56;4.63;;;3.10;;
60257;SDS011;46115;44.484;11.314;2023-04-08T13:03:59;3.47;;;2.90;;
60257;SDS011;46115;44.484;11.314;2023-04-08T13:08:03;4.22;;;2.92;;
60257;SDS011;46115;44.484;11.314;2023-04-08T13:12:05;4.97;;;3.75;;
60257;SDS011;46115;44.484;11.314;2023-04-08T13:16:07;4.97;;;4.47;;
60257;SDS011;46115;44.484;11.314;2023-04-08T13:20:10;4.90;;;3.97;;
60257;SDS011;46115;44.484;11.314;2023-04-08T13:24:14;6.43;;;4.88;;
60257;SDS011;46115;44.484;11.314;2023-04-08T13:28:16;6.13;;;4.80;;
60257;SDS011;46115;44.484;11.314;2023-04-08T13:36:21;5.90;;;3.67;;
60257;SDS011;46115;44.484;11.314;2023-04-08T13:40:24;5.20;;;3.95;;
60257;SDS011;46115;44.484;11.314;2023-04-08T13:44:27;5.50;;;4.40;;
60257;SDS011;46115;44.484;11.314;2023-04-08T13:48:29;5.55;;;3.88;;
60257;SDS011;46115;44.484;11.314;2023-04-08T13:56:35;4.87;;;3.90;;
60257;SDS011;46115;44.484;11.314;2023-04-08T14:00:38;4.70;;;3.83;;
60257;SDS011;46115;44.484;11.314;2023-04-08T14:12:49;8.48;;;5.00;;
60257;SDS011;46115;44.484;11.314;2023-04-08T14:16:52;9.55;;;5.78;;
60257;SDS011;46115;44.484;11.314;2023-04-08T14:24:57;5.85;;;4.60;;
60257;SDS011;46115;44.484;11.314;2023-04-08T14:33:02;4.10;;;3.70;;
60257;SDS011;46115;44.484;11.314;2023-04-08T14:37:05;3.47;;;3.15;;
60257;SDS011;46115;44.484;11.314;2023-04-08T14:45:11;3.50;;;2.75;;
60257;SDS011;46115;44.484;11.314;2023-04-08T14:49:14;4.30;;;2.92;;
60257;SDS011;46115;44.484;11.314;2023-04-08T14:53:16;3.58;;;3.00;;
60257;SDS011;46115;44.484;11.314;2023-04-08T14:57:19;4.40;;;3.30;;
60257;SDS011;46115;44.484;11.314;2023-04-08T15:01:23;4.95;;;3.55;;
60257;SDS011;46115;44.484;11.314;2023-04-08T15:05:25;3.70;;;3.30;;
60257;SDS011;46115;44.484;11.314;2023-04-08T15:09:28;4.57;;;3.00;;
60257;SDS011;46115;44.484;11.314;2023-04-08T15:13:30;3.60;;;3.03;;
60257;SDS011;46115;44.484;11.314;2023-04-08T15:17:34;4.05;;;2.75;;
60257;SDS011;46115;44.484;11.314;2023-04-08T15:21:36;3.60;;;2.88;;
60257;SDS011;46115;44.484;11.314;2023-04-08T15:25:39;3.38;;;2.80;;
60257;SDS011;46115;44.484;11.314;2023-04-08T15:29:41;3.83;;;2.80;;
60257;SDS011;46115;44.484;11.314;2023-04-08T15:33:45;4.20;;;3.00;;
60257;SDS011;46115;44.484;11.314;2023-04-08T15:37:48;5.68;;;3.40;;
60257;SDS011;46115;44.484;11.314;2023-04-08T15:41:50;5.10;;;3.67;;
60257;SDS011;46115;44.484;11.314;2023-04-08T15:45:53;4.68;;;3.20;;
60257;SDS011;46115;44.484;11.314;2023-04-08T15:49:57;4.15;;;2.90;;
60257;SDS011;46115;44.484;11.314;2023-04-08T15:54:00;4.22;;;2.80;;
60257;SDS011;46115;44.484;11.314;2023-04-08T15:58:02;4.00;;;2.97;;
60257;SDS011;46115;44.484;11.314;2023-04-08T16:02:05;4.05;;;2.70;;
60257;SDS011;46115;44.484;11.314;2023-04-08T16:06:09;3.53;;;2.40;;
60257;SDS011;46115;44.484;11.314;2023-04-08T16:10:11;3.42;;;2.55;;
60257;SDS011;46115;44.484;11.314;2023-04-08T16:14:14;3.95;;;2.50;;
60257;SDS011;46115;44.484;11.314;2023-04-08T16:18:16;3.05;;;2.35;;
60257;SDS011;46115;44.484;11.314;2023-04-08T16:22:20;3.50;;;2.10;;
60257;SDS011;46115;44.484;11.314;2023-04-08T16:26:23;2.85;;;2.40;;
60257;SDS011;46115;44.484;11.314;2023-04-08T16:30:27;5.50;;;2.20;;
60257;SDS011;46115;44.484;11.314;2023-04-08T16:34:29;4.70;;;2.20;;
60257;SDS011;46115;44.484;11.314;2023-04-08T16:38:33;3.78;;;2.40;;
60257;SDS011;46115;44.484;11.314;2023-04-08T16:42:36;3.40;;;2.30;;
60257;SDS011;46115;44.484;11.314;2023-04-08T16:46:38;3.28;;;2.15;;
60257;SDS011;46115;44.484;11.314;2023-04-08T16:50:41;2.63;;;2.30;;
60257;SDS011;46115;44.484;11.314;2023-04-08T16:54:45;3.97;;;2.38;;
60257;SDS011;46115;44.484;11.314;2023-04-08T16:58:47;4.28;;;2.38;;
60257;SDS011;46115;44.484;11.314;2023-04-08T17:02:50;3.38;;;2.25;;
60257;SDS011;46115;44.484;11.314;2023-04-08T17:06:55;3.35;;;2.40;;
60257;SDS011;46115;44.484;11.314;2023-04-08T17:11:04;2.88;;;2.40;;
60257;SDS011;46115;44.484;11.314;2023-04-08T17:15:08;4.07;;;2.50;;
60257;SDS011;46115;44.484;11.314;2023-04-08T17:19:11;3.72;;;2.72;;
60257;SDS011;46115;44.484;11.314;2023-04-08T17:23:13;5.00;;;2.63;;
60257;SDS011;46115;44.484;11.314;2023-04-08T17:27:17;3.45;;;2.58;;
60257;SDS011;46115;44.484;11.314;2023-04-08T17:31:21;3.88;;;2.75;;
60257;SDS011;46115;44.484;11.314;2023-04-08T17:35:23;3.50;;;2.60;;
60257;SDS011;46115;44.484;11.314;2023-04-08T17:39:26;4.63;;;2.70;;
60257;SDS011;46115;44.484;11.314;2023-04-08T17:43:31;3.65;;;2.70;;
60257;SDS011;46115;44.484;11.314;2023-04-08T17:47:33;3.95;;;2.50;;
60257;SDS011;46115;44.484;11.314;2023-04-08T17:51:36;4.18;;;2.60;;
60257;SDS011;46115;44.484;11.314;2023-04-08T17:55:39;3.90;;;2.47;;
60257;SDS011;46115;44.484;11.314;2023-04-08T17:59:42;3.75;;;2.70;;
60257;SDS011;46115;44.484;11.314;2023-04-08T18:03:45;4.25;;;2.80;;
60257;SDS011;46115;44.484;11.314;2023-04-08T18:07:48;4.57;;;2.88;;
60257;SDS011;46115;44.484;11.314;2023-04-08T18:11:52;4.82;;;3.00;;
60257;SDS011;46115;44.484;11.314;2023-04-08T18:15:55;3.60;;;3.17;;
60257;SDS011;46115;44.484;11.314;2023-04-08T18:19:59;5.15;;;2.80;;
60257;SDS011;46115;44.484;11.314;2023-04-08T18:24:01;8.80;;;3.30;;
60257;SDS011;46115;44.484;11.314;2023-04-08T18:28:04;5.60;;;3.53;;
60257;SDS011;46115;44.484;11.314;2023-04-08T22:06:08;7.32;;;5.72;;
60257;SDS011;46115;44.484;11.314;2023-04-08T22:10:11;9.95;;;6.50;;
60257;SDS011;46115;44.484;11.314;2023-04-08T22:18:17;8.13;;;6.35;;
60257;SDS011;46115;44.484;11.314;2023-04-08T22:26:22;8.23;;;5.72;;
60257;SDS011;46115;44.484;11.314;2023-04-08T22:30:26;9.25;;;6.50;;
60257;SDS011;46115;44.484;11.314;2023-04-08T22:38:32;8.23;;;6.07;;
60257;SDS011;46115;44.484;11.314;2023-04-08T22:42:35;7.97;;;5.68;;
60257;SDS011;46115;44.484;11.314;2023-04-08T22:50:40;7.40;;;5.90;;
60257;SDS011;46115;44.484;11.314;2023-04-08T22:54:44;8.57;;;5.63;;
60257;SDS011;46115;44.484;11.314;2023-04-08T22:58:47;7.80;;;5.90;;
60257;SDS011;46115;44.484;11.314;2023-04-08T23:06:51;8.80;;;5.90;;
60257;SDS011;46115;44.484;11.314;2023-04-08T23:14:57;7.03;;;5.43;;
60257;SDS011;46115;44.484;11.314;2023-04-08T23:23:02;8.30;;;5.80;;
60257;SDS011;46115;44.484;11.314;2023-04-08T23:31:08;8.25;;;5.63;;
60257;SDS011;46115;44.484;11.314;2023-04-08T23:35:11;8.40;;;5.45;;
60257;SDS011;46115;44.484;11.314;2023-04-08T23:43:17;9.32;;;5.93;;
60257;SDS011;46115;44.484;11.314;2023-04-08T23:47:19;7.60;;;6.07;;
60257;SDS011;46115;44.484;11.314;2023-04-08T23:51:21;9.18;;;5.93;;
60257;SDS011;46115;44.484;11.314;2023-04-08T23:59:27;8.38;;;5.55;;
